createdAt,value
2023-05-14T00:02:27.572Z,102140.66
2023-05-14T00:07:31.149Z,102138.00
2023-05-14T00:12:35.341Z,102131.03
2023-05-14T00:17:39.015Z,102117.09
2023-05-14T00:22:42.149Z,102118.09
2023-05-14T00:27:46.306Z,102114.66
2023-05-14T00:32:49.139Z,102103.31
2023-05-14T00:37:52.047Z,102103.41
2023-05-14T00:42:56.633Z,102101.56
2023-05-14T00:47:59.620Z,102096.41
2023-05-14T00:53:02.601Z,102090.28
2023-05-14T00:58:09.313Z,102089.41
2023-05-14T01:03:12.217Z,102085.91
2023-05-14T01:08:21.964Z,102089.47
2023-05-14T01:13:28.551Z,102079.84
2023-05-14T01:18:33.735Z,102072.88
2023-05-14T01:23:37.925Z,102074.66
2023-05-14T01:28:40.940Z,102075.56
2023-05-14T01:33:44.513Z,102079.16
2023-05-14T01:38:51.148Z,102078.31
2023-05-14T01:43:55.092Z,102073.06
2023-05-14T01:48:57.925Z,102064.41
2023-05-14T01:54:02.110Z,102065.28
2023-05-14T01:59:05.041Z,102064.47
2023-05-14T02:04:08.509Z,102072.38
2023-05-14T02:09:12.650Z,102068.97
2023-05-14T02:14:15.782Z,102061.97
2023-05-14T02:19:18.947Z,102055.88
2023-05-14T02:24:23.280Z,102053.34
2023-05-14T02:29:26.258Z,102053.38
2023-05-14T02:34:29.296Z,102048.09
2023-05-14T02:39:33.461Z,102043.75
2023-05-14T02:44:36.260Z,102043.78
2023-05-14T02:49:40.180Z,102041.19
2023-05-14T02:54:44.785Z,102036.81
2023-05-14T02:59:47.586Z,102038.56
2023-05-14T03:04:50.729Z,102037.75
2023-05-14T03:09:54.899Z,102042.06
2023-05-14T03:14:57.843Z,102038.56
2023-05-14T03:20:02.626Z,102038.56
2023-05-14T03:25:08.176Z,102034.19
2023-05-14T03:30:12.805Z,102028.03
2023-05-14T03:35:16.569Z,102020.22
2023-05-14T03:40:21.457Z,102016.72
2023-05-14T03:45:52.322Z,101998.31
2023-05-14T03:50:55.606Z,101994.75
2023-05-14T03:56:00.315Z,101998.28
2023-05-14T04:01:03.686Z,101994.72
2023-05-14T04:06:07.300Z,101999.03
2023-05-14T04:11:12.447Z,102016.50
2023-05-14T04:16:15.378Z,102006.94
2023-05-14T04:21:18.474Z,102006.81
2023-05-14T04:26:23.021Z,102012.81
2023-05-14T04:31:26.081Z,102012.72
2023-05-14T04:36:28.905Z,102012.59
2023-05-14T04:41:33.192Z,102017.66
2023-05-14T04:46:36.214Z,102017.53
2023-05-14T04:51:39.063Z,102012.94
2023-05-14T04:56:43.218Z,102016.31
2023-05-14T05:01:46.359Z,102002.94
2023-05-14T05:06:49.256Z,101999.09
2023-05-14T05:11:53.500Z,102010.28
2023-05-14T05:16:56.512Z,102001.38
2023-05-14T05:21:59.349Z,102009.81
2023-05-14T05:27:03.575Z,102007.72
2023-05-14T05:32:07.685Z,102014.31
2023-05-14T05:37:12.813Z,102009.59
2023-05-14T05:42:17.059Z,102002.91
2023-05-14T05:47:19.878Z,102001.59
2023-05-14T05:52:22.728Z,101992.53
2023-05-14T05:57:27.401Z,101996.53
2023-05-14T06:02:30.234Z,101996.81
2023-05-14T06:07:33.142Z,101991.00
2023-05-14T06:12:37.273Z,101994.00
2023-05-14T06:17:40.180Z,101996.88
2023-05-14T06:22:43.071Z,101988.81
2023-05-14T06:27:47.247Z,101989.13
2023-05-14T06:32:50.102Z,101991.19
2023-05-14T06:37:53.010Z,101988.66
2023-05-14T06:42:57.204Z,102005.66
2023-05-14T06:48:00.430Z,101995.25
2023-05-14T06:53:03.387Z,101985.44
2023-05-14T06:58:08.894Z,101987.97
2023-05-14T07:03:11.733Z,101983.03
2023-05-14T07:08:14.714Z,101980.59
2023-05-14T07:13:19.594Z,101982.22
2023-05-14T07:18:22.531Z,101984.97
2023-05-14T07:23:25.329Z,101973.53
2023-05-14T07:28:29.434Z,101965.34
2023-05-14T07:33:32.228Z,101962.84
2023-05-14T07:38:35.072Z,101974.78
2023-05-14T07:43:40.514Z,101981.72
2023-05-14T07:48:43.365Z,101980.34
2023-05-14T07:53:46.236Z,101962.53
2023-05-14T07:58:51.068Z,101959.56
2023-05-14T08:03:54.102Z,101966.19
2023-05-14T08:08:56.973Z,101968.94
2023-05-14T08:14:01.167Z,101953.72
2023-05-14T08:19:03.971Z,101949.53
2023-05-14T08:24:07.129Z,101945.69
2023-05-14T08:29:12.909Z,101942.25
2023-05-14T08:34:16.928Z,101940.84
2023-05-14T08:39:19.727Z,101931.44
2023-05-14T08:44:31.834Z,101922.00
2023-05-14T08:49:41.400Z,101919.47
2023-05-14T08:54:44.456Z,101915.09
2023-05-14T08:59:48.622Z,101906.13
2023-05-14T09:04:53.011Z,101912.31
2023-05-14T09:09:56.435Z,101905.28
2023-05-14T09:15:00.628Z,101903.72
2023-05-14T09:20:04.776Z,101889.75
2023-05-14T09:25:12.139Z,101899.38
2023-05-14T09:30:17.057Z,101888.94
2023-05-14T09:35:21.460Z,101883.72
2023-05-14T09:40:25.490Z,101882.38
2023-05-14T09:45:30.450Z,101878.69
2023-05-14T09:50:33.543Z,101879.63
2023-05-14T09:55:37.750Z,101875.84
2023-05-14T10:00:45.973Z,101880.59
2023-05-14T10:05:51.067Z,101870.59
2023-05-14T10:10:55.447Z,101865.72
2023-05-14T10:16:03.629Z,101869.34
2023-05-14T10:21:07.589Z,101866.38
2023-05-14T10:26:11.164Z,101861.72
2023-05-14T10:31:15.692Z,101855.19
2023-05-14T10:36:19.122Z,101851.06
2023-05-14T10:41:21.945Z,101845.94
2023-05-14T10:46:26.667Z,101838.09
2023-05-14T10:51:29.532Z,101835.06
2023-05-14T10:56:32.344Z,101819.44
2023-05-14T11:01:36.642Z,101822.56
2023-05-14T11:06:39.783Z,101813.47
2023-05-14T11:11:42.913Z,101805.81
2023-05-14T11:16:47.101Z,101801.94
2023-05-14T11:21:50.051Z,101796.84
2023-05-14T11:26:55.717Z,101798.44
2023-05-14T11:32:00.205Z,101790.28
2023-05-14T11:37:05.113Z,101791.47
2023-05-14T11:42:14.557Z,101782.25
2023-05-14T11:47:19.839Z,101777.34
2023-05-14T11:52:22.816Z,101769.84
2023-05-14T11:57:26.604Z,101767.69
2023-05-14T12:02:31.015Z,101770.00
2023-05-14T12:07:33.973Z,101769.34
2023-05-14T12:12:37.553Z,101772.06
2023-05-14T12:17:42.227Z,101763.84
2023-05-14T12:22:45.313Z,101757.88
2023-05-14T12:27:48.232Z,101755.34
2023-05-14T12:32:53.637Z,101761.66
2023-05-14T12:37:56.677Z,101753.78
2023-05-14T12:42:59.553Z,101745.03
2023-05-14T12:48:03.740Z,101735.88
2023-05-14T12:53:06.863Z,101732.16
2023-05-14T12:58:09.972Z,101734.28
2023-05-14T13:03:14.219Z,101734.47
2023-05-14T13:08:17.873Z,101735.25
2023-05-14T13:13:20.827Z,101732.56
2023-05-14T13:18:26.637Z,101726.28
2023-05-14T13:23:29.626Z,101725.75
2023-05-14T13:28:32.493Z,101733.31
2023-05-14T13:33:42.089Z,101722.72
2023-05-14T13:38:45.849Z,101728.31
2023-05-14T13:43:48.685Z,101722.84
2023-05-14T13:48:52.906Z,101718.25
2023-05-14T13:53:56.118Z,101715.28
2023-05-14T13:58:59.298Z,101709.97
2023-05-14T14:04:03.554Z,101711.75
2023-05-14T14:09:06.521Z,101705.47
2023-05-14T14:14:09.503Z,101696.78
2023-05-14T14:19:15.438Z,101699.75
2023-05-14T14:24:19.033Z,101698.31
2023-05-14T14:29:23.932Z,101690.28
2023-05-14T14:34:28.214Z,101688.44
2023-05-14T14:39:31.024Z,101691.28
2023-05-14T14:44:33.892Z,101690.38
2023-05-14T14:49:38.065Z,101685.09
2023-05-14T14:54:40.941Z,101686.16
2023-05-14T14:59:43.822Z,101697.81
2023-05-14T15:04:47.970Z,101704.59
2023-05-14T15:09:50.777Z,101705.19
2023-05-14T15:14:53.576Z,101702.66
2023-05-14T15:19:57.790Z,101707.38
2023-05-14T15:25:00.887Z,101703.38
2023-05-14T15:30:03.939Z,101700.50
2023-05-14T15:35:09.694Z,101704.78
2023-05-14T15:40:13.499Z,101700.94
2023-05-14T15:45:16.292Z,101699.47
2023-05-14T15:50:20.533Z,101704.00
2023-05-14T15:55:23.457Z,101705.28
2023-05-14T16:00:26.510Z,101701.09
2023-05-14T16:05:30.934Z,101698.03
2023-05-14T16:10:33.877Z,101699.22
2023-05-14T16:15:36.736Z,101704.84
2023-05-14T16:20:41.437Z,101710.56
2023-05-14T16:25:44.251Z,101716.63
2023-05-14T16:30:47.009Z,101718.09
2023-05-14T16:35:51.915Z,101710.31
2023-05-14T16:40:54.759Z,101715.66
2023-05-14T16:45:57.601Z,101725.84
2023-05-14T16:51:01.858Z,101728.69
2023-05-14T16:56:04.796Z,101724.53
2023-05-14T17:01:09.908Z,101737.59
2023-05-14T17:06:14.892Z,101728.75
2023-05-14T17:11:17.725Z,101727.19
2023-05-14T17:16:22.023Z,101717.88
2023-05-14T17:21:26.346Z,101714.44
2023-05-14T17:26:30.800Z,101716.53
2023-05-14T17:31:33.977Z,101713.81
2023-05-14T17:36:38.144Z,101703.53
2023-05-14T17:41:41.989Z,101707.41
2023-05-14T17:46:45.842Z,101709.13
2023-05-14T17:51:50.329Z,101702.53
2023-05-14T17:56:53.495Z,101713.50
2023-05-14T18:01:56.314Z,101715.03
2023-05-14T18:07:01.440Z,101721.03
2023-05-14T18:12:04.465Z,101719.81
2023-05-14T18:17:07.419Z,101715.94
2023-05-14T18:22:11.679Z,101718.16
2023-05-14T18:27:14.480Z,101719.41
2023-05-14T18:32:17.262Z,101728.59
2023-05-14T18:37:21.446Z,101732.44
2023-05-14T18:42:24.371Z,101731.06
2023-05-14T18:47:27.459Z,101734.88
2023-05-14T18:52:32.332Z,101746.09
2023-05-14T18:57:35.637Z,101747.34
2023-05-14T19:02:38.628Z,101738.03
2023-05-14T19:07:43.786Z,101735.81
2023-05-14T19:12:47.401Z,101736.28
2023-05-14T19:17:50.371Z,101732.19
2023-05-14T19:22:54.618Z,101729.88
2023-05-14T19:27:57.583Z,101730.19
2023-05-14T19:33:00.496Z,101735.63
2023-05-14T19:38:04.677Z,101738.41
2023-05-14T19:43:07.922Z,101733.47
2023-05-14T19:48:12.445Z,101736.41
2023-05-14T19:53:16.765Z,101742.72
2023-05-14T19:58:19.588Z,101741.38
2023-05-14T20:03:23.546Z,101742.53
2023-05-14T20:08:29.040Z,101748.91
2023-05-14T20:13:32.063Z,101748.31
2023-05-14T20:18:34.931Z,101746.78
2023-05-14T20:23:39.179Z,101750.53
2023-05-14T20:28:43.399Z,101753.28
2023-05-14T20:33:46.251Z,101743.97
2023-05-14T20:38:50.473Z,101727.56
2023-05-14T20:43:53.306Z,101729.50
2023-05-14T20:48:57.057Z,101734.00
2023-05-14T20:54:02.453Z,101736.81
2023-05-14T20:59:05.262Z,101732.47
2023-05-14T21:04:08.363Z,101726.50
2023-05-14T21:09:12.803Z,101728.22
2023-05-14T21:14:15.655Z,101742.38
2023-05-14T21:19:18.614Z,101741.47
2023-05-14T21:24:22.996Z,101745.97
2023-05-14T21:29:25.764Z,101738.94
2023-05-14T21:34:29.770Z,101730.16
2023-05-14T21:39:35.490Z,101725.09
2023-05-14T21:44:38.353Z,101724.09
2023-05-14T21:49:41.682Z,101724.97
2023-05-14T21:54:45.966Z,101718.88
2023-05-14T21:59:48.794Z,101717.97
2023-05-14T22:04:51.614Z,101705.72
2023-05-14T22:09:55.962Z,101703.09
2023-05-14T22:14:58.746Z,101704.22
2023-05-14T22:20:01.787Z,101720.03
2023-05-14T22:25:06.784Z,101704.25
2023-05-14T22:30:10.484Z,101713.19
2023-05-14T22:35:13.333Z,101708.06
2023-05-14T22:40:17.509Z,101701.13
2023-05-14T22:45:20.372Z,101680.25
2023-05-14T22:50:23.348Z,101675.09
2023-05-14T22:55:27.739Z,101675.22
2023-05-14T23:00:30.900Z,101678.84
2023-05-14T23:05:33.801Z,101665.03
2023-05-14T23:10:38.013Z,101667.81
2023-05-14T23:15:40.845Z,101657.50
2023-05-14T23:20:43.785Z,101652.41
2023-05-14T23:25:50.090Z,101659.63
2023-05-14T23:30:52.928Z,101655.34
2023-05-14T23:35:55.800Z,101651.94
2023-05-14T23:41:00.007Z,101646.97
2023-05-14T23:46:03.158Z,101642.63
2023-05-14T23:51:06.038Z,101638.38
2023-05-14T23:56:10.327Z,101627.06
